Time;durP1;ratioP1;P1;durP2;ratioP2;P2;SDS_P1;SDS_P2;PMS_P1;PMS_P2;Temp;Humidity;BMP_temperature;BMP_pressure;BME280_temperature;BME280_humidity;BME280_pressure;Samples;Min_cycle;Max_cycle;Signal;HPM_P1;HPM_P2
2022/06/28 00:02:25;;;;;;;3.22;1.60;;;;;;;25.66;56.90;98716.59;5066612;28;20043;-65
2022/06/28 00:05:10;;;;;;;3.60;1.80;;;;;;;25.67;57.07;98761.97;5088035;28;20063;-65
2022/06/28 00:07:55;;;;;;;2.60;1.70;;;;;;;25.61;57.57;98794.94;5079068;28;20044;-65
2022/06/28 00:10:42;;;;;;;2.90;1.70;;;;;;;25.44;58.77;98791.81;5096618;28;20096;-65
2022/06/28 00:13:30;;;;;;;3.50;1.65;;;;;;;25.43;58.79;98779.44;5082831;28;20031;-65
2022/06/28 00:16:16;;;;;;;4.07;1.48;;;;;;;25.26;59.33;98797.75;5084407;28;20039;-65
2022/06/28 00:19:01;;;;;;;4.53;1.70;;;;;;;25.26;59.05;98806.63;5111186;28;20039;-64
2022/06/28 00:21:48;;;;;;;2.70;1.58;;;;;;;25.26;59.18;98814.66;5079756;28;20067;-64
2022/06/28 00:24:32;;;;;;;5.30;1.95;;;;;;;25.26;59.50;98822.69;5096701;28;20421;-64
2022/06/28 00:27:18;;;;;;;2.80;1.70;;;;;;;25.35;59.25;98831.38;5092523;28;20129;-66
2022/06/28 00:30:04;;;;;;;2.35;1.50;;;;;;;25.31;58.99;98836.31;5091800;28;20062;-65
2022/06/28 00:32:49;;;;;;;2.30;1.50;;;;;;;25.25;59.45;98847.03;5096628;28;20087;-65
2022/06/28 00:35:35;;;;;;;4.63;1.60;;;;;;;25.29;59.33;98843.75;5081917;28;20040;-65
2022/06/28 00:38:20;;;;;;;3.08;1.98;;;;;;;25.29;59.60;98841.06;5111103;28;20036;-66
2022/06/28 00:41:05;;;;;;;4.00;1.77;;;;;;;25.22;60.21;98853.59;5111299;28;20043;-66
2022/06/28 00:43:49;;;;;;;4.57;1.75;;;;;;;25.20;59.59;98844.94;5095787;28;20119;-65
2022/06/28 00:46:34;;;;;;;4.88;1.40;;;;;;;25.22;59.20;98846.38;5089457;28;20047;-65
2022/06/28 00:49:19;;;;;;;5.10;1.60;;;;;;;25.12;60.09;98863.88;5093718;28;20036;-66
2022/06/28 00:52:04;;;;;;;3.30;1.80;;;;;;;24.97;60.90;98865.63;5095265;28;20486;-65
2022/06/28 00:54:49;;;;;;;4.15;2.20;;;;;;;24.95;61.44;98881.09;5085753;28;20096;-65
2022/06/28 00:57:34;;;;;;;4.68;2.00;;;;;;;24.97;61.81;98886.25;5110966;28;20059;-65
2022/06/28 01:00:19;;;;;;;2.38;1.70;;;;;;;24.93;62.35;98891.16;5095853;28;20399;-66
2022/06/28 01:03:04;;;;;;;4.00;2.05;;;;;;;24.94;63.54;98889.31;5080973;28;20117;-65
2022/06/28 01:05:53;;;;;;;3.33;2.03;;;;;;;24.87;63.88;98894.59;5095634;28;20035;-65
2022/06/28 01:08:45;;;;;;;7.35;2.53;;;;;;;24.80;64.77;98915.16;5088181;28;20035;-66
2022/06/28 01:11:32;;;;;;;4.70;2.38;;;;;;;24.77;64.86;98911.03;5094081;28;20032;-64
2022/06/28 01:14:23;;;;;;;3.78;2.22;;;;;;;24.66;65.57;98917.72;5082099;28;20073;-66
2022/06/28 01:17:32;;;;;;;4.80;2.30;;;;;;;24.59;65.86;98930.25;5109163;28;20044;-64
2022/06/28 01:20:46;;;;;;;4.28;2.05;;;;;;;24.47;66.82;98938.78;5102280;28;20047;-65
2022/06/28 01:23:44;;;;;;;3.67;2.15;;;;;;;24.49;66.68;98943.94;5089371;28;20063;-65
2022/06/28 01:26:46;;;;;;;6.47;2.42;;;;;;;24.40;67.33;98943.25;5086218;28;20063;-66
2022/06/28 01:29:31;;;;;;;4.95;2.13;;;;;;;24.37;67.79;98946.31;5081888;28;20492;-65
2022/06/28 01:32:47;;;;;;;4.63;2.20;;;;;;;24.24;68.22;98950.50;5041573;28;20051;-65
2022/06/28 01:35:32;;;;;;;3.83;2.13;;;;;;;24.16;69.19;98958.66;5100072;28;20044;-65
2022/06/28 01:38:17;;;;;;;3.47;2.00;;;;;;;24.01;70.35;98972.03;5085475;28;20502;-65
2022/06/28 01:41:01;;;;;;;3.92;1.88;;;;;;;23.78;71.38;98964.97;5098782;28;20035;-65
2022/06/28 01:43:47;;;;;;;1.83;1.63;;;;;;;23.68;72.38;98956.44;5099346;28;20125;-65
2022/06/28 01:46:34;;;;;;;5.07;1.90;;;;;;;23.52;73.84;98958.28;5097471;28;20039;-65
2022/06/28 01:49:22;;;;;;;4.10;1.98;;;;;;;23.42;74.25;98952.41;5085275;28;20089;-65
2022/06/28 01:52:07;;;;;;;3.72;1.80;;;;;;;23.21;75.31;98957.44;5099492;28;20047;-64
2022/06/28 01:54:52;;;;;;;5.72;2.25;;;;;;;23.09;76.11;98950.88;5074999;28;20031;-65
2022/06/28 01:57:39;;;;;;;4.32;2.25;;;;;;;22.97;77.03;98958.50;5086687;28;20478;-64
2022/06/28 02:00:24;;;;;;;4.78;1.55;;;;;;;22.87;76.99;98964.94;5103044;28;20039;-65
2022/06/28 02:03:13;;;;;;;2.75;1.60;;;;;;;22.83;77.21;98968.16;5087281;28;20039;-64
2022/06/28 02:06:00;;;;;;;2.70;1.67;;;;;;;22.72;77.57;98970.22;5120561;28;20051;-65
2022/06/28 02:08:46;;;;;;;3.85;1.60;;;;;;;22.66;77.75;98983.47;5107213;28;20168;-65
2022/06/28 02:11:37;;;;;;;7.68;1.38;;;;;;;22.51;78.76;98979.72;5099461;28;20058;-65
2022/06/28 02:14:22;;;;;;;2.88;1.55;;;;;;;22.50;78.60;98979.88;5098869;28;20043;-66
2022/06/28 02:17:09;;;;;;;2.53;1.80;;;;;;;22.44;78.85;98986.75;5088154;28;20048;-65
2022/06/28 02:19:54;;;;;;;2.80;1.45;;;;;;;22.39;79.30;98983.81;5078992;28;20044;-64
2022/06/28 02:22:40;;;;;;;3.35;1.70;;;;;;;22.28;79.78;98980.53;5064259;28;20093;-64
2022/06/28 02:25:25;;;;;;;2.22;1.42;;;;;;;22.14;80.81;98978.63;5097953;28;20039;-65
2022/06/28 02:28:10;;;;;;;2.88;1.70;;;;;;;22.10;81.47;98986.13;5098613;28;20093;-64
2022/06/28 02:30:54;;;;;;;2.72;1.40;;;;;;;22.11;81.66;98978.97;5083916;28;20065;-65
2022/06/28 02:33:40;;;;;;;3.08;1.90;;;;;;;22.00;82.74;98988.22;5102591;28;20040;-64
2022/06/28 02:42:32;;;;;;;2.60;1.80;;;;;;;21.74;85.91;98981.28;5113357;28;20427;-64
2022/06/28 02:45:18;;;;;;;4.03;2.00;;;;;;;21.75;86.50;98973.13;5080398;28;20071;-64
2022/06/28 02:48:03;;;;;;;4.57;1.90;;;;;;;21.73;86.67;98967.13;5097570;28;20394;-65
2022/06/28 02:50:49;;;;;;;3.13;1.88;;;;;;;21.68;87.42;98974.81;5069679;28;20074;-65
2022/06/28 02:53:33;;;;;;;2.83;1.95;;;;;;;21.60;88.54;98972.16;5083126;28;20054;-65
2022/06/28 02:56:20;;;;;;;5.30;2.30;;;;;;;21.59;88.89;98974.00;5113484;28;20411;-64
2022/06/28 02:59:04;;;;;;;3.60;1.95;;;;;;;21.53;89.48;98983.53;5097034;28;20398;-64
2022/06/28 03:01:49;;;;;;;3.35;1.90;;;;;;;21.55;89.95;98972.69;5112688;28;20047;-65
2022/06/28 03:04:34;;;;;;;3.22;2.30;;;;;;;21.62;89.42;98962.19;5085444;28;20038;-65
2022/06/28 03:07:19;;;;;;;4.32;1.85;;;;;;;21.68;89.02;98956.16;5065019;28;20142;-65
2022/06/28 03:10:06;;;;;;;3.58;1.90;;;;;;;21.82;88.21;98967.13;5077188;28;20154;-64
2022/06/28 03:12:50;;;;;;;3.92;1.95;;;;;;;21.88;87.60;98971.75;5097183;28;20057;-65
2022/06/28 03:15:35;;;;;;;4.90;2.10;;;;;;;21.86;87.44;98971.09;5097806;28;20039;-65
2022/06/28 03:18:20;;;;;;;3.55;2.13;;;;;;;21.75;88.78;98965.13;5077817;28;20044;-65
2022/06/28 03:21:05;;;;;;;2.90;2.15;;;;;;;21.74;88.95;98959.97;5085680;28;20124;-65
2022/06/28 03:23:50;;;;;;;6.03;2.05;;;;;;;21.71;89.41;98939.81;5063292;28;20063;-65
2022/06/28 03:26:36;;;;;;;3.45;2.05;;;;;;;21.65;89.83;98916.53;5076632;28;20032;-64
2022/06/28 03:29:21;;;;;;;3.88;2.22;;;;;;;21.66;89.37;98923.50;5091760;28;20044;-65
2022/06/28 03:32:06;;;;;;;4.57;2.00;;;;;;;21.71;88.74;98915.81;5078425;28;20123;-65
2022/06/28 03:34:51;;;;;;;2.10;1.80;;;;;;;21.74;87.63;98907.47;5076883;28;20060;-64
2022/06/28 03:37:39;;;;;;;4.18;1.95;;;;;;;21.83;86.04;98894.97;5090455;28;20043;-65
2022/06/28 03:40:25;;;;;;;4.38;2.05;;;;;;;21.92;85.19;98898.41;5077145;28;20078;-64
2022/06/28 03:43:10;;;;;;;4.30;1.90;;;;;;;21.96;83.95;98881.06;5090349;28;20047;-65
2022/06/28 03:45:55;;;;;;;3.55;1.55;;;;;;;21.95;82.92;98852.72;5091282;28;20462;-65
2022/06/28 03:48:58;;;;;;;5.03;1.60;;;;;;;22.07;80.70;98807.81;5084933;28;20040;-65
2022/06/28 03:52:09;;;;;;;6.10;1.40;;;;;;;22.14;80.53;98743.91;5095240;28;20040;-65
2022/06/28 03:55:15;;;;;;;4.88;1.80;;;;;;;22.01;82.37;98652.03;5080354;28;20062;-65
2022/06/28 03:58:03;;;;;;;4.32;2.00;;;;;;;21.80;85.89;98614.59;5071113;28;20439;-65
2022/06/28 04:00:48;;;;;;;4.82;1.75;;;;;;;21.59;88.26;98592.09;5079587;28;20375;-64
2022/06/28 04:03:34;;;;;;;5.40;1.67;;;;;;;21.57;88.63;98655.41;5092193;28;20074;-64
2022/06/28 04:06:19;;;;;;;2.65;1.50;;;;;;;21.69;84.15;98762.41;5092302;28;20039;-65
2022/06/28 04:09:05;;;;;;;7.93;1.77;;;;;;;21.84;83.33;98779.31;5091922;28;20040;-64
2022/06/28 04:11:50;;;;;;;2.42;1.50;;;;;;;21.96;82.41;98803.72;5090659;28;20387;-65
2022/06/28 04:14:35;;;;;;;6.85;1.83;;;;;;;21.97;82.47;98844.53;5078688;28;20035;-64
2022/06/28 04:17:20;;;;;;;3.92;1.60;;;;;;;21.95;82.08;98835.91;5090070;28;20122;-64
2022/06/28 04:20:24;;;;;;;2.97;1.70;;;;;;;22.04;81.34;98834.84;5085019;28;20387;-64
2022/06/28 04:23:18;;;;;;;1.73;1.33;;;;;;;22.18;80.30;98856.41;5067149;28;20085;-64
2022/06/28 04:26:04;;;;;;;5.03;1.70;;;;;;;22.15;80.22;98893.09;5096726;28;20063;-64
2022/06/28 04:28:56;;;;;;;2.90;1.58;;;;;;;22.18;79.60;98941.75;5096778;28;20031;-65
2022/06/28 04:31:45;;;;;;;2.15;1.48;;;;;;;22.12;80.11;98977.97;5096334;28;20042;-66
2022/06/28 04:34:29;;;;;;;3.00;1.40;;;;;;;22.14;79.86;98975.94;5081696;28;20482;-64
2022/06/28 04:37:16;;;;;;;3.33;1.30;;;;;;;22.20;80.61;98977.06;5084672;28;20072;-63
2022/06/28 04:40:04;;;;;;;3.90;1.63;;;;;;;22.10;81.74;98972.81;5095296;28;20027;-64
2022/06/28 04:42:58;;;;;;;3.28;1.45;;;;;;;22.06;83.91;98982.16;5096348;28;20368;-65
2022/06/28 04:45:43;;;;;;;3.35;1.98;;;;;;;22.03;84.29;98983.34;5100549;28;20418;-64
2022/06/28 04:48:30;;;;;;;3.40;1.50;;;;;;;22.02;84.96;99000.34;5096514;28;20471;-65
2022/06/28 04:51:15;;;;;;;2.65;1.50;;;;;;;21.92;86.98;99012.25;5075378;28;20036;-64
2022/06/28 04:54:01;;;;;;;2.42;1.60;;;;;;;21.81;88.57;99034.75;5097415;28;20047;-64
2022/06/28 04:56:50;;;;;;;3.30;2.22;;;;;;;21.66;89.56;99048.78;5096306;28;20035;-64
2022/06/28 04:59:35;;;;;;;2.75;1.38;;;;;;;21.62;90.02;99052.78;5096842;28;20039;-64
2022/06/28 05:02:23;;;;;;;2.83;1.67;;;;;;;21.66;90.70;99052.28;5095666;28;20036;-64
2022/06/28 05:05:10;;;;;;;2.97;1.90;;;;;;;21.64;91.86;99064.94;5097797;28;20055;-64
2022/06/28 05:07:57;;;;;;;3.47;1.90;;;;;;;21.49;92.79;99085.28;5100260;28;20055;-64
2022/06/28 05:10:48;;;;;;;4.85;2.10;;;;;;;21.28;95.78;99106.13;5099780;28;20067;-64
2022/06/28 05:13:44;;;;;;;3.47;2.03;;;;;;;21.32;96.37;99103.13;5099065;28;20120;-64
2022/06/28 05:16:32;;;;;;;4.07;1.90;;;;;;;21.42;95.85;99085.13;5100210;28;20035;-63
2022/06/28 05:19:17;;;;;;;3.08;1.67;;;;;;;21.29;95.34;99086.50;5083340;28;20036;-63
2022/06/28 05:22:04;;;;;;;1.88;1.48;;;;;;;21.20;96.07;99087.47;5096017;28;20043;-63
2022/06/28 05:24:55;;;;;;;3.25;1.40;;;;;;;21.32;95.31;99103.97;5084941;28;20425;-66
2022/06/28 05:27:42;;;;;;;6.13;1.50;;;;;;;21.28;94.42;99102.63;5099112;28;20059;-64
2022/06/28 05:30:27;;;;;;;3.58;1.30;;;;;;;21.34;93.98;99109.97;5067547;28;20585;-65
2022/06/28 05:33:12;;;;;;;2.95;1.25;;;;;;;21.52;92.50;99111.59;5079248;28;20036;-65
2022/06/28 05:35:57;;;;;;;2.20;1.35;;;;;;;21.44;92.89;99119.59;5099273;28;20050;-64
2022/06/28 05:38:42;;;;;;;2.90;1.38;;;;;;;21.54;92.25;99118.41;5089996;28;20416;-64
2022/06/28 05:41:28;;;;;;;2.38;1.13;;;;;;;21.53;91.46;99121.25;5099381;28;20248;-65
2022/06/28 05:44:15;;;;;;;3.03;1.27;;;;;;;21.67;90.66;99125.09;5072856;28;20177;-65
2022/06/28 05:47:01;;;;;;;1.65;1.17;;;;;;;21.71;90.72;99134.41;5106879;28;20126;-65
2022/06/28 05:49:46;;;;;;;2.38;1.15;;;;;;;21.71;90.21;99137.06;5080603;28;20047;-65
2022/06/28 05:52:31;;;;;;;1.65;1.10;;;;;;;21.77;89.75;99136.41;5098401;28;20059;-65
2022/06/28 05:55:16;;;;;;;1.60;1.10;;;;;;;21.80;89.76;99135.25;5081933;28;20035;-64
2022/06/28 05:58:01;;;;;;;2.55;1.35;;;;;;;21.80;89.14;99134.41;5099340;28;20039;-63
2022/06/28 06:00:49;;;;;;;2.08;1.17;;;;;;;21.87;89.58;99130.91;5085483;28;20031;-64
2022/06/28 06:03:33;;;;;;;2.08;1.23;;;;;;;21.98;88.25;99123.53;5079411;28;20032;-66
2022/06/28 06:06:18;;;;;;;2.80;1.08;;;;;;;22.10;87.63;99116.81;5099081;28;20108;-66
2022/06/28 06:09:07;;;;;;;2.25;1.17;;;;;;;22.18;86.87;99126.63;5098357;28;20063;-64
2022/06/28 06:11:51;;;;;;;4.13;1.20;;;;;;;22.26;85.86;99134.59;5084121;28;20063;-65
2022/06/28 06:14:36;;;;;;;3.38;0.93;;;;;;;22.19;86.57;99130.97;5065923;28;20490;-64
2022/06/28 06:17:21;;;;;;;2.20;1.00;;;;;;;22.15;86.74;99127.81;5094890;28;20071;-64
2022/06/28 06:20:06;;;;;;;1.45;1.00;;;;;;;22.26;85.89;99123.94;5083574;28;20104;-65
2022/06/28 06:22:51;;;;;;;2.25;1.00;;;;;;;22.30;85.46;99121.75;5083575;28;20040;-65
2022/06/28 06:26:12;;;;;;;2.97;1.00;;;;;;;22.50;84.54;99124.00;5010031;28;20042;-65
2022/06/28 06:28:56;;;;;;;4.85;0.93;;;;;;;;;;5077691;28;20051;-64
2022/06/28 06:31:41;;;;;;;3.35;1.38;;;;;;;22.44;83.92;99124.72;5096719;28;20036;-65
2022/06/28 06:34:46;;;;;;;2.40;1.05;;;;;;;22.49;83.42;99122.34;5113434;28;20074;-64
2022/06/28 06:37:31;;;;;;;2.45;0.80;;;;;;;22.84;81.90;99122.84;5098358;28;20083;-65
2022/06/28 06:40:16;;;;;;;3.70;0.93;;;;;;;22.94;81.28;99124.44;5078307;28;20040;-64
2022/06/28 06:43:02;;;;;;;1.67;0.90;;;;;;;22.84;81.46;99114.00;5107578;28;20051;-64
2022/06/28 06:45:52;;;;;;;1.27;0.80;;;;;;;22.73;81.42;99109.91;5074458;28;20442;-64
2022/06/28 06:48:38;;;;;;;1.60;1.20;;;;;;;22.94;80.69;99108.41;5108809;28;20255;-65
2022/06/28 06:51:24;;;;;;;6.18;1.40;;;;;;;22.92;80.97;99119.28;5071899;28;20081;-67
2022/06/28 06:54:08;;;;;;;5.70;1.45;;;;;;;23.20;80.01;99116.09;5086165;28;20128;-65
2022/06/28 06:56:53;;;;;;;2.58;1.00;;;;;;;23.31;77.96;99113.97;5083254;28;20117;-65
2022/06/28 06:59:38;;;;;;;1.27;0.80;;;;;;;23.56;77.50;99121.81;5097742;28;20088;-65
2022/06/28 07:02:23;;;;;;;2.33;0.88;;;;;;;23.58;76.50;99117.13;5097990;28;20043;-64
2022/06/28 07:05:11;;;;;;;2.03;0.80;;;;;;;23.42;76.25;99118.09;5097306;28;20177;-65
2022/06/28 07:07:57;;;;;;;3.17;0.82;;;;;;;23.85;75.00;99123.69;5083613;28;20028;-66
2022/06/28 07:10:49;;;;;;;1.17;0.85;;;;;;;23.94;73.35;99132.44;5097450;28;20053;-65
2022/06/28 07:13:34;;;;;;;2.75;1.00;;;;;;;24.03;72.10;99135.03;5097681;28;20032;-65
2022/06/28 07:16:20;;;;;;;1.58;0.77;;;;;;;24.51;70.12;99134.66;5086600;28;20040;-64
2022/06/28 07:19:05;;;;;;;1.42;0.98;;;;;;;24.33;70.41;99138.56;5112616;28;20035;-65
2022/06/28 07:21:50;;;;;;;2.17;1.10;;;;;;;24.47;69.08;99136.03;5099687;28;20043;-64
2022/06/28 07:24:35;;;;;;;2.13;0.82;;;;;;;24.28;69.21;99132.94;5096765;28;20061;-65
2022/06/28 07:27:20;;;;;;;1.50;0.80;;;;;;;24.52;68.61;99130.97;5068866;28;20478;-65
2022/06/28 07:30:06;;;;;;;2.05;0.90;;;;;;;24.94;67.36;99128.56;5091191;28;20471;-66
2022/06/28 07:32:51;;;;;;;1.98;0.93;;;;;;;25.08;66.12;99121.50;5097561;28;20064;-65
2022/06/28 07:35:36;;;;;;;1.70;0.73;;;;;;;25.05;64.66;99118.38;5068983;28;20039;-66
2022/06/28 07:38:21;;;;;;;1.77;0.85;;;;;;;25.28;64.37;99126.19;5082410;28;20035;-65
2022/06/28 07:41:35;;;;;;;2.05;0.80;;;;;;;25.48;62.83;99124.72;5033899;28;20391;-66
2022/06/28 07:44:38;;;;;;;2.15;0.88;;;;;;;25.55;62.47;99126.41;5111667;28;20077;-66
2022/06/28 07:47:24;;;;;;;2.25;0.63;;;;;;;25.81;62.34;99127.66;5071794;28;20031;-65
2022/06/28 07:53:13;;;;;;;2.30;0.80;;;;;;;27.50;58.39;99130.03;5106335;28;20116;-64
2022/06/28 07:56:21;;;;;;;1.90;0.80;;;;;;;27.00;57.86;99125.00;5112010;28;20093;-66
2022/06/28 07:59:07;;;;;;;3.30;0.73;;;;;;;27.42;57.00;99128.38;5096270;28;20036;-65
2022/06/28 08:01:52;;;;;;;0.80;0.70;;;;;;;27.85;55.95;99120.91;5081972;28;20528;-64
2022/06/28 08:04:45;;;;;;;2.17;0.57;;;;;;;27.69;55.47;99124.88;5083774;28;20438;-65
2022/06/28 08:07:29;;;;;;;1.48;0.60;;;;;;;27.34;55.95;99127.78;5096480;28;20039;-66
2022/06/28 08:10:14;;;;;;;1.05;0.70;;;;;;;28.22;54.50;99130.34;5080659;28;20459;-66
2022/06/28 08:12:59;;;;;;;1.45;0.90;;;;;;;27.89;53.12;99129.41;5085307;28;20039;-65
2022/06/28 08:15:45;;;;;;;1.50;0.77;;;;;;;27.73;53.12;99131.47;5070853;28;20041;-64
2022/06/28 08:18:31;;;;;;;1.83;0.80;;;;;;;27.78;54.11;99117.41;5111622;28;20037;-65
2022/06/28 08:21:18;;;;;;;2.00;0.90;;;;;;;28.48;53.42;99115.94;5082600;28;20423;-66
2022/06/28 08:24:02;;;;;;;1.65;0.88;;;;;;;28.59;51.08;99117.16;5097178;28;20040;-65
2022/06/28 08:26:47;;;;;;;4.50;0.95;;;;;;;28.46;51.05;99115.34;5066341;28;20039;-65
2022/06/28 08:29:33;;;;;;;2.15;0.88;;;;;;;27.92;52.08;99113.63;5096539;28;20092;-65
2022/06/28 08:32:25;;;;;;;2.97;0.80;;;;;;;28.38;51.17;99123.69;5097961;28;20046;-65
2022/06/28 08:35:10;;;;;;;2.88;0.88;;;;;;;28.21;51.64;99116.03;5096183;28;20387;-64
2022/06/28 08:37:55;;;;;;;6.95;1.33;;;;;;;28.63;50.26;99123.75;5112441;28;20039;-66
2022/06/28 08:40:40;;;;;;;2.33;0.70;;;;;;;28.52;50.66;99122.56;5086795;28;20444;-64
2022/06/28 08:43:26;;;;;;;3.13;1.05;;;;;;;28.68;50.22;99112.31;5115615;28;20112;-65
2022/06/28 08:46:10;;;;;;;2.25;0.80;;;;;;;28.67;51.84;99117.91;5101020;28;20106;-64
2022/06/28 08:49:10;;;;;;;1.63;0.80;;;;;;;29.48;48.30;99109.25;5103056;28;20113;-66
2022/06/28 08:51:56;;;;;;;4.97;1.02;;;;;;;28.98;48.58;99100.97;5115127;28;20040;-65
2022/06/28 08:54:41;;;;;;;1.70;0.90;;;;;;;29.05;49.59;99098.22;5100691;28;20367;-64
2022/06/28 08:57:26;;;;;;;1.38;0.70;;;;;;;29.12;50.10;99100.84;5087441;28;20039;-66
2022/06/28 09:00:12;;;;;;;2.53;0.70;;;;;;;28.86;48.06;99108.06;5115182;28;20482;-66
2022/06/28 09:02:58;;;;;;;4.35;0.85;;;;;;;28.98;48.47;99106.38;5115357;28;20036;-65
2022/06/28 09:05:46;;;;;;;2.92;0.60;;;;;;;29.08;49.40;99097.78;5115330;28;20039;-66
2022/06/28 09:08:31;;;;;;;1.30;0.68;;;;;;;29.84;47.24;99101.47;5088806;28;20031;-64
2022/06/28 09:11:19;;;;;;;2.85;0.63;;;;;;;29.57;47.26;99089.06;5110921;28;20059;-65
2022/06/28 09:14:22;;;;;;;2.90;0.80;;;;;;;29.86;47.70;99093.97;5104948;28;20032;-65
2022/06/28 09:17:28;;;;;;;2.92;0.70;;;;;;;30.59;45.11;99096.81;5101567;28;20100;-64
2022/06/28 09:20:14;;;;;;;4.03;0.80;;;;;;;30.08;47.16;99107.81;5118928;28;20055;-65
2022/06/28 09:22:59;;;;;;;1.52;0.63;;;;;;;30.04;46.96;99103.13;5121770;28;20051;-66
2022/06/28 09:25:44;;;;;;;2.38;0.82;;;;;;;30.39;45.58;99104.38;5089540;28;20462;-64
2022/06/28 09:28:34;;;;;;;1.48;0.65;;;;;;;30.31;45.67;99105.53;5094730;28;20036;-65
2022/06/28 09:31:31;;;;;;;4.00;1.00;;;;;;;29.26;48.57;99106.97;5097891;28;20481;-65
2022/06/28 09:34:16;;;;;;;2.08;0.90;;;;;;;30.46;45.58;99105.94;5100790;28;20066;-64
2022/06/28 09:37:01;;;;;;;1.23;0.60;;;;;;;29.97;47.08;99106.72;5100044;28;20048;-65
2022/06/28 09:39:47;;;;;;;3.10;0.70;;;;;;;30.08;46.57;99118.63;5099133;28;20040;-64
2022/06/28 09:42:32;;;;;;;0.90;0.60;;;;;;;29.93;46.32;99105.53;5102207;28;20054;-64
2022/06/28 09:45:17;;;;;;;2.38;0.70;;;;;;;30.61;46.30;99102.00;5115603;28;20040;-64
2022/06/28 09:48:03;;;;;;;3.88;0.80;;;;;;;31.80;43.41;99097.81;5114909;28;20036;-64
2022/06/28 09:50:48;;;;;;;0.90;0.80;;;;;;;31.26;43.48;99106.84;5114429;28;20368;-65
2022/06/28 09:53:35;;;;;;;1.17;0.80;;;;;;;31.06;44.08;99095.31;5106176;28;20047;-64
2022/06/28 09:56:24;;;;;;;3.47;0.60;;;;;;;31.49;43.30;99102.53;5101780;28;20498;-65
2022/06/28 09:59:10;;;;;;;1.77;0.75;;;;;;;30.86;44.80;99101.84;5072326;28;20042;-65
2022/06/28 10:02:03;;;;;;;2.58;0.80;;;;;;;31.27;44.03;99124.75;5078676;28;20064;-66
2022/06/28 10:04:48;;;;;;;1.27;0.80;;;;;;;31.48;42.73;99112.56;5078919;28;20036;-65
2022/06/28 10:07:34;;;;;;;2.20;0.60;;;;;;;32.26;41.32;99114.22;5084766;28;20324;-65
2022/06/28 10:10:24;;;;;;;1.13;0.80;;;;;;;32.81;40.54;99125.56;5099150;28;20043;-64
2022/06/28 10:16:45;;;;;;;1.35;0.70;;;;;;;32.96;39.48;99120.63;5101220;28;20051;-65
2022/06/28 10:19:32;;;;;;;1.63;0.80;;;;;;;33.60;39.61;99110.53;5109635;28;20139;-65
2022/06/28 10:22:17;;;;;;;2.45;0.77;;;;;;;32.72;40.66;99102.63;5114833;28;20466;-64
2022/06/28 10:25:12;;;;;;;1.40;1.10;;;;;;;33.02;39.08;99101.50;5098284;28;20097;-65
2022/06/28 10:27:56;;;;;;;1.73;0.98;;;;;;;33.65;39.33;99088.91;5113191;28;20157;-65
2022/06/28 10:30:41;;;;;;;4.57;1.08;;;;;;;33.67;38.11;99086.78;5098879;28;20043;-65
2022/06/28 10:33:41;;;;;;;6.05;1.40;;;;;;;34.09;37.92;99082.66;5097561;28;20113;-66
2022/06/28 10:36:39;;;;;;;1.95;0.98;;;;;;;34.19;37.11;99084.72;5111672;28;20036;-65
2022/06/28 10:39:26;;;;;;;1.70;1.10;;;;;;;33.59;39.11;99084.47;5092539;28;20044;-65
2022/06/28 10:42:13;;;;;;;1.65;1.13;;;;;;;34.24;36.47;99083.94;5101568;28;20046;-65
2022/06/28 10:45:01;;;;;;;2.60;1.10;;;;;;;34.25;37.43;99083.69;5097881;28;20048;-64
2022/06/28 10:48:07;;;;;;;2.72;1.40;;;;;;;34.22;37.03;99080.66;5112688;28;20467;-64
2022/06/28 10:50:58;;;;;;;2.65;1.25;;;;;;;35.09;36.26;99082.53;5101747;28;20595;-65
2022/06/28 10:53:57;;;;;;;2.00;1.75;;;;;;;34.84;36.29;99075.84;5113462;28;20035;-65
2022/06/28 10:56:44;;;;;;;2.15;1.00;;;;;;;34.76;36.25;99079.03;5113637;28;20066;-65
2022/06/28 10:59:37;;;;;;;1.65;1.10;;;;;;;34.85;36.15;99079.38;5097884;28;20048;-64
2022/06/28 11:02:23;;;;;;;3.15;1.30;;;;;;;32.94;39.32;99088.34;5112595;28;20031;-67
2022/06/28 11:05:09;;;;;;;4.63;1.23;;;;;;;32.48;40.39;99083.72;5112979;28;20135;-65
2022/06/28 11:08:01;;;;;;;2.22;1.23;;;;;;;34.25;37.02;99082.84;5113402;28;20363;-65
2022/06/28 11:11:03;;;;;;;3.30;1.23;;;;;;;34.51;37.54;99088.56;5112684;28;20424;-66
2022/06/28 11:13:48;;;;;;;2.25;1.00;;;;;;;34.54;36.19;99071.72;5112633;28;20486;-66
2022/06/28 11:16:49;;;;;;;1.88;1.10;;;;;;;34.45;36.20;99076.84;5113857;28;20047;-67
2022/06/28 11:19:50;;;;;;;3.00;1.65;;;;;;;34.88;35.28;99066.06;5085448;28;20039;-66
2022/06/28 11:22:44;;;;;;;3.05;1.20;;;;;;;34.77;36.39;99064.34;5077815;28;20039;-66
2022/06/28 11:27:19;;;;;;;2.03;0.90;;;;;;;34.36;37.49;99062.03;5060080;28;20058;-66
2022/06/28 11:28:52;;;;;;;1.45;1.10;;;;;;;34.63;37.26;99064.78;5099848;28;20027;-64
2022/06/28 11:31:42;;;;;;;1.88;0.98;;;;;;;34.58;36.69;99058.44;5097815;28;20386;-68
2022/06/28 11:34:29;;;;;;;3.25;1.10;;;;;;;34.50;36.45;99043.44;5097461;28;20043;-67
2022/06/28 11:37:14;;;;;;;1.38;0.80;;;;;;;34.43;36.47;99049.06;5100730;28;20134;-66
2022/06/28 11:40:03;;;;;;;3.05;1.10;;;;;;;33.08;38.39;99050.06;5111651;28;20047;-66
2022/06/28 11:43:08;;;;;;;2.50;1.20;;;;;;;33.38;38.51;99046.16;5113109;28;20043;-66
2022/06/28 11:45:54;;;;;;;1.48;1.00;;;;;;;33.35;38.88;99050.19;5113634;28;20396;-66
2022/06/28 11:48:39;;;;;;;2.17;1.10;;;;;;;33.20;38.77;99050.78;5107405;28;20493;-65
2022/06/28 11:51:30;;;;;;;1.67;1.02;;;;;;;33.25;37.87;99055.47;5065890;28;20441;-67
2022/06/28 11:54:16;;;;;;;1.15;0.90;;;;;;;34.21;36.65;99049.13;5087716;28;20043;-67
2022/06/28 11:57:16;;;;;;;3.67;1.30;;;;;;;34.61;36.04;99052.50;5098266;28;20051;-66
2022/06/28 12:00:03;;;;;;;1.48;0.88;;;;;;;33.60;37.65;99051.63;5095805;28;20475;-63
2022/06/28 12:03:01;;;;;;;1.42;1.10;;;;;;;34.03;37.60;99038.31;5098970;28;20473;-65
2022/06/28 12:05:47;;;;;;;2.70;0.95;;;;;;;36.08;34.73;99033.25;5096292;28;20039;-66
2022/06/28 12:08:43;;;;;;;3.85;1.10;;;;;;;34.84;36.20;99034.22;5111999;28;20032;-65
2022/06/28 12:11:44;;;;;;;1.88;1.25;;;;;;;34.97;35.36;99038.41;5101847;28;20490;-66
2022/06/28 12:14:31;;;;;;;2.30;1.10;;;;;;;34.45;36.79;99037.94;5095507;28;20036;-67
2022/06/28 12:17:16;;;;;;;1.58;1.00;;;;;;;34.40;36.24;99031.41;5111473;28;20123;-66
2022/06/28 12:20:08;;;;;;;4.57;1.30;;;;;;;34.39;36.17;99040.59;5062805;28;20040;-65
2022/06/28 12:23:01;;;;;;;2.28;0.90;;;;;;;34.88;34.39;99036.16;5107484;28;20043;-65
2022/06/28 12:25:46;;;;;;;3.28;0.80;;;;;;;35.79;33.69;99031.81;5111781;28;20066;-66
2022/06/28 12:28:30;;;;;;;2.35;1.17;;;;;;;35.14;34.78;99020.00;5083446;28;20032;-67
2022/06/28 12:31:16;;;;;;;2.85;1.08;;;;;;;34.62;36.78;99016.06;5096526;28;20043;-66
2022/06/28 12:34:07;;;;;;;1.88;0.95;;;;;;;34.43;36.49;99019.19;5066057;28;20471;-67
2022/06/28 12:36:53;;;;;;;2.10;1.08;;;;;;;34.62;35.83;99007.91;5095949;28;20044;-67
2022/06/28 12:39:38;;;;;;;2.85;0.85;;;;;;;34.87;36.31;99011.94;5112183;28;20103;-66
2022/06/28 12:42:23;;;;;;;3.03;0.70;;;;;;;34.28;35.51;99004.38;5111812;28;20048;-66
2022/06/28 12:45:09;;;;;;;3.70;1.10;;;;;;;34.45;35.91;99000.72;5092459;28;20107;-65
2022/06/28 12:47:53;;;;;;;1.98;0.90;;;;;;;34.80;35.26;99001.28;5078674;28;20032;-65
2022/06/28 12:50:38;;;;;;;2.83;0.60;;;;;;;34.68;35.73;99003.34;5105361;28;20066;-67
2022/06/28 12:53:23;;;;;;;2.22;0.88;;;;;;;35.00;34.80;98999.78;5096459;28;20126;-65
2022/06/28 12:56:08;;;;;;;1.42;0.90;;;;;;;35.92;33.53;98991.53;5117235;28;20117;-66
2022/06/28 12:58:56;;;;;;;1.20;0.60;;;;;;;35.39;34.54;98985.06;5103130;28;20031;-65
2022/06/28 13:01:41;;;;;;;1.30;0.82;;;;;;;34.86;34.91;98991.28;5111923;28;20472;-66
2022/06/28 13:04:28;;;;;;;3.65;0.70;;;;;;;34.93;34.87;98980.16;5100965;28;20074;-65
2022/06/28 13:07:17;;;;;;;2.05;0.85;;;;;;;34.49;35.48;98980.09;5079866;28;20024;-65
2022/06/28 13:10:02;;;;;;;3.17;1.00;;;;;;;35.58;33.91;98969.06;5096153;28;20035;-65
2022/06/28 13:12:47;;;;;;;2.13;1.10;;;;;;;35.74;33.88;98969.97;5111983;28;20032;-65
2022/06/28 13:15:35;;;;;;;2.53;0.80;;;;;;;34.48;35.46;98964.03;5111193;28;20040;-66
2022/06/28 13:18:24;;;;;;;1.40;0.93;;;;;;;34.11;36.65;98971.81;5111463;28;20035;-66
2022/06/28 13:21:09;;;;;;;3.67;0.88;;;;;;;34.69;35.22;98953.31;5081226;28;20068;-64
2022/06/28 13:23:53;;;;;;;1.70;0.93;;;;;;;34.76;35.43;98952.06;5111562;28;20102;-65
2022/06/28 13:26:38;;;;;;;3.47;0.80;;;;;;;33.48;37.27;98945.88;5114560;28;20248;-66